createdAt,value
2023-11-19T00:01:54.226Z,18.85
2023-11-19T00:04:56.506Z,23.08
2023-11-19T00:07:58.615Z,23.90
2023-11-19T00:11:02.474Z,24.47
2023-11-19T00:14:05.215Z,24.10
2023-11-19T00:17:07.277Z,28.02
2023-11-19T00:20:09.619Z,26.77
2023-11-19T00:23:11.749Z,25.52
2023-11-19T00:26:14.589Z,26.08
2023-11-19T00:29:20.027Z,27.42
2023-11-19T00:32:23.984Z,28.10
2023-11-19T00:35:26.117Z,26.27
2023-11-19T00:38:28.389Z,30.20
2023-11-19T00:41:30.451Z,30.07
2023-11-19T00:44:32.563Z,27.15
2023-11-19T00:47:34.678Z,34.85
2023-11-19T00:50:38.244Z,32.03
2023-11-19T00:53:40.939Z,29.75
2023-11-19T00:56:43.024Z,33.00
2023-11-19T00:59:45.428Z,29.75
2023-11-19T01:02:47.869Z,27.83
2023-11-19T01:05:50.161Z,40.83
2023-11-19T01:08:52.900Z,35.33
2023-11-19T01:11:55.301Z,39.50
2023-11-19T01:14:59.187Z,33.17
2023-11-19T01:18:03.315Z,32.03
2023-11-19T01:21:05.851Z,30.07
2023-11-19T01:24:10.609Z,34.78
2023-11-19T01:27:13.666Z,31.08
2023-11-19T01:30:15.841Z,35.00
2023-11-19T01:33:18.029Z,32.20
2023-11-19T01:36:20.111Z,31.02
2023-11-19T01:39:22.358Z,37.53
2023-11-19T01:42:26.761Z,37.23
2023-11-19T01:45:30.535Z,36.03
2023-11-19T01:48:33.970Z,34.53
2023-11-19T01:51:36.292Z,31.47
2023-11-19T01:54:38.411Z,37.20
2023-11-19T01:57:42.412Z,31.98
2023-11-19T02:00:45.703Z,35.28
2023-11-19T02:03:48.490Z,32.80
2023-11-19T02:06:53.892Z,29.95
2023-11-19T02:09:56.049Z,31.15
2023-11-19T02:13:06.277Z,32.23
2023-11-19T02:16:10.838Z,33.80
2023-11-19T02:19:13.126Z,34.05
2023-11-19T02:22:15.274Z,33.13
2023-11-19T02:25:30.826Z,32.30
2023-11-19T02:28:34.214Z,40.47
2023-11-19T02:31:36.497Z,37.60
2023-11-19T02:34:38.618Z,34.60
2023-11-19T02:37:40.685Z,39.63
2023-11-19T02:40:42.825Z,40.33
2023-11-19T02:43:44.968Z,41.27
2023-11-19T02:46:49.550Z,58.80
2023-11-19T02:49:51.685Z,53.67
2023-11-19T02:52:55.263Z,56.07
2023-11-19T02:56:03.605Z,50.17
2023-11-19T02:59:13.145Z,52.20
2023-11-19T03:02:17.503Z,51.55
2023-11-19T03:05:21.030Z,43.70
2023-11-19T03:08:23.998Z,42.30
2023-11-19T03:11:26.432Z,35.58
2023-11-19T03:14:28.773Z,31.57
2023-11-19T03:17:30.923Z,29.52
2023-11-19T03:20:33.299Z,31.67
2023-11-19T03:23:36.078Z,33.43
2023-11-19T03:26:38.528Z,35.42
2023-11-19T03:29:40.611Z,34.55
2023-11-19T03:32:42.796Z,34.25
2023-11-19T03:35:44.908Z,34.40
2023-11-19T03:38:47.741Z,30.77
2023-11-19T03:41:49.849Z,35.78
2023-11-19T03:44:53.069Z,39.40
2023-11-19T03:47:55.222Z,40.05
2023-11-19T03:50:57.304Z,36.80
2023-11-19T03:54:00.376Z,33.90
2023-11-19T03:57:04.642Z,35.95
2023-11-19T04:00:15.562Z,36.10
2023-11-19T04:03:17.755Z,36.33
2023-11-19T04:06:19.830Z,31.20
2023-11-19T04:09:21.965Z,29.13
2023-11-19T04:12:24.144Z,31.67
2023-11-19T04:15:26.346Z,28.07
2023-11-19T04:18:28.445Z,32.45
2023-11-19T04:21:30.534Z,26.85
2023-11-19T04:24:33.166Z,26.43
2023-11-19T04:27:35.290Z,25.00
2023-11-19T04:30:39.062Z,27.83
2023-11-19T04:33:41.171Z,29.80
2023-11-19T04:36:45.046Z,25.33
2023-11-19T04:39:47.628Z,29.35
2023-11-19T04:42:49.872Z,31.58
2023-11-19T04:45:51.967Z,32.97
2023-11-19T04:48:54.060Z,39.13
2023-11-19T04:51:56.162Z,29.40
2023-11-19T04:54:58.257Z,34.43
2023-11-19T04:58:00.327Z,34.15
2023-11-19T05:01:02.833Z,41.20
2023-11-19T05:04:05.195Z,34.55
2023-11-19T05:07:08.489Z,31.77
2023-11-19T05:10:10.914Z,30.52
2023-11-19T05:13:14.057Z,31.95
2023-11-19T05:16:16.622Z,23.67
2023-11-19T05:19:18.928Z,24.48
2023-11-19T05:22:22.091Z,20.38
2023-11-19T05:25:24.316Z,19.80
2023-11-19T05:28:27.339Z,18.15
2023-11-19T05:31:29.531Z,13.43
2023-11-19T05:34:31.652Z,20.05
2023-11-19T05:37:35.360Z,17.80
2023-11-19T05:40:39.962Z,19.02
2023-11-19T05:43:42.218Z,18.50
2023-11-19T05:46:45.285Z,16.33
2023-11-19T05:49:47.429Z,17.98
2023-11-19T05:52:49.520Z,15.35
2023-11-19T05:55:56.057Z,17.80
2023-11-19T05:58:58.249Z,16.63
2023-11-19T06:02:00.310Z,14.80
2023-11-19T06:05:02.658Z,22.48
2023-11-19T06:08:04.804Z,22.67
2023-11-19T06:11:07.104Z,21.80
2023-11-19T06:14:09.182Z,26.27
2023-11-19T06:17:12.490Z,29.03
2023-11-19T06:20:15.553Z,32.25
2023-11-19T06:23:17.689Z,41.05
2023-11-19T06:26:19.721Z,31.07
2023-11-19T06:29:21.927Z,27.52
2023-11-19T06:32:24.052Z,22.27
2023-11-19T06:35:26.070Z,25.02
2023-11-19T06:38:28.154Z,24.23
2023-11-19T06:41:30.412Z,33.70
2023-11-19T06:44:32.665Z,30.77
2023-11-19T06:47:34.791Z,24.83
2023-11-19T06:50:37.031Z,28.77
2023-11-19T06:53:40.817Z,24.77
2023-11-19T06:56:43.023Z,35.20
2023-11-19T06:59:45.372Z,29.92
2023-11-19T07:02:47.650Z,26.65
2023-11-19T07:05:49.909Z,29.83
2023-11-19T07:08:52.022Z,24.45
2023-11-19T07:11:54.863Z,26.52
2023-11-19T07:14:57.152Z,21.30
2023-11-19T07:18:02.755Z,18.77
2023-11-19T07:21:05.951Z,22.13
2023-11-19T07:24:08.430Z,24.27
2023-11-19T07:27:10.550Z,25.33
2023-11-19T07:30:12.703Z,23.95
2023-11-19T07:33:15.075Z,26.45
2023-11-19T07:36:17.769Z,35.20
2023-11-19T07:39:21.908Z,29.33
2023-11-19T07:42:25.125Z,29.58
2023-11-19T07:45:28.557Z,15.45
2023-11-19T07:48:30.660Z,23.67
2023-11-19T07:51:32.810Z,24.73
2023-11-19T07:54:34.978Z,22.73
2023-11-19T07:57:37.790Z,22.87
2023-11-19T08:00:40.060Z,22.20
2023-11-19T08:06:59.616Z,18.77
2023-11-19T08:10:01.721Z,17.73
2023-11-19T08:13:03.934Z,16.73
2023-11-19T08:16:07.035Z,20.02
2023-11-19T08:19:09.819Z,23.57
2023-11-19T08:22:11.990Z,21.73
2023-11-19T08:25:14.288Z,18.67
2023-11-19T08:28:16.366Z,20.77
2023-11-19T08:31:18.490Z,18.75
2023-11-19T08:34:20.803Z,16.83
2023-11-19T08:37:23.981Z,17.13
2023-11-19T08:40:30.862Z,17.27
2023-11-19T08:43:33.176Z,16.38
2023-11-19T08:46:35.289Z,15.45
2023-11-19T08:49:37.360Z,19.83
2023-11-19T08:52:39.528Z,36.25
2023-11-19T08:55:41.637Z,30.13
2023-11-19T08:58:43.716Z,36.67
2023-11-19T09:01:46.029Z,14.77
2023-11-19T09:04:49.757Z,26.08
2023-11-19T09:07:52.968Z,15.45
2023-11-19T09:10:55.077Z,9.40
2023-11-19T09:13:57.191Z,15.27
2023-11-19T09:16:59.467Z,21.63
2023-11-19T09:20:01.816Z,16.07
2023-11-19T09:23:03.931Z,17.38
2023-11-19T09:26:06.630Z,17.30
2023-11-19T09:29:09.065Z,9.47
2023-11-19T09:32:11.262Z,19.15
2023-11-19T09:35:15.942Z,14.48
2023-11-19T09:38:18.488Z,16.67
2023-11-19T09:41:20.830Z,14.43
2023-11-19T09:44:23.257Z,15.63
2023-11-19T09:47:26.758Z,18.70
2023-11-19T09:50:29.467Z,18.47
2023-11-19T09:53:32.144Z,18.48
2023-11-19T09:56:34.372Z,17.23
2023-11-19T09:59:37.926Z,19.53
2023-11-19T10:02:40.287Z,20.58
2023-11-19T10:05:42.616Z,16.95
2023-11-19T10:08:45.293Z,23.60
2023-11-19T10:11:47.602Z,25.77
2023-11-19T10:14:50.083Z,19.17
2023-11-19T10:17:52.544Z,15.23
2023-11-19T10:20:56.081Z,17.60
2023-11-19T10:24:01.070Z,16.17
2023-11-19T10:27:04.645Z,30.13
2023-11-19T10:30:10.141Z,18.23
2023-11-19T10:33:22.132Z,19.50
2023-11-19T10:36:38.189Z,17.05
2023-11-19T10:39:54.621Z,17.55
2023-11-19T10:43:05.614Z,20.17
2023-11-19T10:46:14.867Z,16.27
2023-11-19T10:49:17.055Z,16.67
2023-11-19T10:52:22.726Z,21.40
2023-11-19T10:55:27.377Z,15.15
2023-11-19T10:58:31.107Z,20.95
2023-11-19T11:01:39.573Z,16.87
2023-11-19T11:04:43.320Z,17.52
2023-11-19T11:07:45.730Z,18.50
2023-11-19T11:13:59.238Z,18.70
2023-11-19T11:17:02.574Z,18.90
2023-11-19T11:20:05.311Z,15.98
2023-11-19T11:23:10.438Z,15.43
2023-11-19T11:26:32.316Z,19.60
2023-11-19T11:29:34.520Z,15.82
2023-11-19T11:32:51.936Z,16.37
2023-11-19T11:36:10.390Z,30.33
2023-11-19T11:39:12.709Z,28.40
2023-11-19T11:42:23.798Z,14.80
2023-11-19T11:45:55.425Z,19.15
2023-11-19T11:48:58.613Z,20.63
2023-11-19T11:52:01.449Z,18.88
2023-11-19T11:55:10.064Z,22.87
2023-11-19T11:58:12.248Z,21.70
2023-11-19T12:01:21.437Z,19.58
2023-11-19T12:04:27.133Z,31.83
2023-11-19T12:07:29.246Z,30.48
2023-11-19T12:10:34.652Z,20.75
2023-11-19T12:13:49.932Z,22.45
2023-11-19T12:16:52.156Z,22.70
2023-11-19T12:19:54.670Z,24.92
2023-11-19T12:22:56.939Z,23.88
2023-11-19T12:25:59.960Z,19.13
2023-11-19T12:29:03.760Z,28.20
2023-11-19T12:35:12.935Z,26.87
2023-11-19T12:38:22.217Z,66.05
2023-11-19T12:41:24.426Z,17.92
2023-11-19T12:44:26.515Z,28.52
2023-11-19T12:47:28.642Z,28.40
2023-11-19T12:50:30.730Z,23.25
2023-11-19T12:53:48.052Z,22.25
2023-11-19T12:56:56.395Z,31.17
2023-11-19T12:59:58.561Z,22.02
2023-11-19T13:03:00.628Z,35.95
2023-11-19T13:06:06.533Z,24.60
2023-11-19T13:09:11.060Z,35.60
2023-11-19T13:12:14.316Z,30.52
2023-11-19T13:15:26.725Z,40.70
2023-11-19T13:18:44.601Z,25.98
2023-11-19T13:21:48.559Z,23.10
2023-11-19T13:24:50.766Z,22.83
2023-11-19T13:27:53.199Z,17.30
2023-11-19T13:30:55.436Z,15.82
2023-11-19T13:33:59.521Z,16.90
2023-11-19T13:37:01.934Z,10.13
2023-11-19T13:40:04.604Z,12.43
2023-11-19T13:43:06.897Z,7.63
2023-11-19T13:46:11.635Z,13.23
2023-11-19T13:49:14.213Z,18.25
2023-11-19T13:52:16.364Z,16.40
2023-11-19T13:55:19.392Z,19.80
2023-11-19T13:58:21.497Z,12.30
2023-11-19T14:01:26.559Z,14.77
2023-11-19T14:04:28.903Z,18.08
2023-11-19T14:07:31.011Z,31.90
2023-11-19T14:10:33.178Z,24.65
2023-11-19T14:13:35.855Z,17.35
2023-11-19T14:16:38.867Z,16.83
2023-11-19T14:19:41.185Z,15.35
2023-11-19T14:22:44.296Z,16.48
2023-11-19T14:25:46.368Z,19.05
2023-11-19T14:31:55.143Z,23.20
2023-11-19T14:34:57.338Z,19.52
2023-11-19T14:37:59.427Z,28.47
2023-11-19T14:41:01.702Z,19.08
2023-11-19T14:44:04.608Z,15.55
2023-11-19T14:47:06.836Z,18.75
2023-11-19T14:50:10.167Z,22.55
2023-11-19T14:53:12.365Z,24.90
2023-11-19T14:56:14.573Z,14.00
2023-11-19T14:59:16.656Z,14.33
2023-11-19T15:02:19.324Z,13.77
2023-11-19T15:05:21.422Z,19.33
2023-11-19T15:08:23.610Z,17.73
2023-11-19T15:11:25.704Z,16.30
2023-11-19T15:14:27.843Z,19.95
2023-11-19T15:17:29.970Z,34.17
2023-11-19T15:20:32.676Z,22.30
2023-11-19T15:23:34.854Z,25.55
2023-11-19T15:26:37.068Z,23.48
2023-11-19T15:32:45.820Z,16.55
2023-11-19T15:35:48.041Z,22.75
2023-11-19T15:41:56.534Z,21.88
2023-11-19T15:44:58.633Z,24.92
2023-11-19T15:48:00.684Z,22.45
2023-11-19T15:51:03.942Z,22.45
2023-11-19T15:54:06.660Z,24.73
2023-11-19T15:57:09.057Z,29.48
2023-11-19T16:00:12.303Z,23.90
2023-11-19T16:03:14.988Z,25.88
2023-11-19T16:06:17.268Z,22.55
2023-11-19T16:09:20.449Z,22.33
2023-11-19T16:12:22.554Z,27.08
2023-11-19T16:18:29.767Z,28.17
2023-11-19T16:21:31.879Z,30.70
2023-11-19T16:24:33.935Z,33.95
2023-11-19T16:27:36.090Z,27.77
2023-11-19T16:30:38.212Z,34.87
2023-11-19T16:33:40.329Z,36.30
2023-11-19T16:36:42.438Z,40.22
2023-11-19T16:39:45.278Z,55.73
2023-11-19T16:42:47.728Z,108.18
2023-11-19T16:45:49.758Z,89.47
2023-11-19T16:48:51.811Z,44.58
2023-11-19T16:51:54.628Z,61.53
2023-11-19T16:54:57.003Z,54.13
2023-11-19T16:58:00.513Z,80.18
2023-11-19T17:01:02.647Z,75.23
2023-11-19T17:04:09.096Z,104.93
2023-11-19T17:07:11.429Z,111.43
2023-11-19T17:10:13.613Z,95.70
2023-11-19T17:13:15.921Z,74.95
2023-11-19T17:16:18.712Z,64.28
2023-11-19T17:19:22.544Z,46.67
2023-11-19T17:22:24.632Z,48.28
2023-11-19T17:25:26.671Z,42.20
2023-11-19T17:28:28.798Z,43.20
2023-11-19T17:31:33.888Z,35.00
2023-11-19T17:34:36.116Z,38.92
2023-11-19T17:37:38.339Z,27.27
2023-11-19T17:40:40.465Z,30.87
2023-11-19T17:43:42.580Z,22.95
2023-11-19T17:46:44.830Z,26.60
2023-11-19T17:49:48.030Z,24.98
2023-11-19T17:52:50.270Z,26.42
2023-11-19T17:55:52.331Z,23.02
2023-11-19T17:58:54.414Z,21.40
2023-11-19T18:01:59.253Z,24.60
2023-11-19T18:05:02.429Z,29.20
2023-11-19T18:08:06.218Z,38.90
2023-11-19T18:11:11.424Z,32.50
2023-11-19T18:14:13.544Z,28.23
2023-11-19T18:17:16.277Z,25.67
2023-11-19T18:20:18.600Z,29.40
2023-11-19T18:23:20.791Z,28.10
2023-11-19T18:26:22.931Z,33.65
2023-11-19T18:29:25.072Z,26.38
2023-11-19T18:32:27.347Z,22.37
2023-11-19T18:35:29.652Z,22.80
2023-11-19T18:41:38.054Z,21.90
2023-11-19T18:44:40.188Z,23.67
2023-11-19T18:47:42.374Z,21.08
2023-11-19T18:53:49.607Z,21.50
2023-11-19T18:56:54.753Z,28.40
2023-11-19T18:59:56.799Z,27.13
2023-11-19T19:06:05.555Z,25.60
2023-11-19T19:09:08.078Z,28.15
2023-11-19T19:12:10.228Z,27.50
2023-11-19T19:15:17.034Z,28.13
2023-11-19T19:18:19.660Z,44.47
2023-11-19T19:21:22.605Z,30.10
2023-11-19T19:24:25.446Z,30.90
2023-11-19T19:27:27.671Z,31.45
2023-11-19T19:30:29.763Z,28.73
2023-11-19T19:33:31.881Z,27.30
2023-11-19T19:36:34.136Z,30.27
2023-11-19T19:39:36.272Z,27.15
2023-11-19T19:42:42.369Z,25.20
2023-11-19T19:45:44.484Z,26.27
2023-11-19T19:48:46.581Z,24.77
2023-11-19T19:51:48.682Z,46.08
2023-11-19T19:54:50.816Z,36.85
2023-11-19T19:57:52.877Z,29.45
2023-11-19T20:00:55.215Z,26.75
2023-11-19T20:03:57.794Z,32.07
2023-11-19T20:07:00.100Z,57.17
2023-11-19T20:10:02.405Z,54.83
2023-11-19T20:13:11.281Z,50.17
2023-11-19T20:16:13.492Z,42.70
2023-11-19T20:19:16.073Z,41.95
2023-11-19T20:22:18.156Z,41.25
2023-11-19T20:25:20.210Z,37.15
2023-11-19T20:28:22.361Z,28.95
2023-11-19T20:31:24.850Z,27.48
2023-11-19T20:34:27.714Z,25.53
2023-11-19T20:37:31.444Z,21.95
2023-11-19T20:40:33.670Z,22.67
2023-11-19T20:43:35.881Z,20.27
2023-11-19T20:46:38.139Z,25.40
2023-11-19T20:49:40.347Z,28.55
2023-11-19T20:52:42.577Z,34.00
2023-11-19T20:55:46.273Z,37.05
2023-11-19T20:58:48.418Z,25.83
2023-11-19T21:01:50.517Z,17.40
2023-11-19T21:04:52.610Z,26.07
2023-11-19T21:07:54.673Z,24.33
2023-11-19T21:10:56.721Z,21.90
2023-11-19T21:13:58.825Z,22.77
2023-11-19T21:17:01.343Z,20.45
2023-11-19T21:20:04.248Z,22.98
2023-11-19T21:23:06.589Z,25.48
2023-11-19T21:26:08.727Z,24.52
2023-11-19T21:29:12.406Z,24.45
2023-11-19T21:32:14.604Z,23.50
2023-11-19T21:35:16.650Z,23.53
2023-11-19T21:38:19.820Z,21.40
2023-11-19T21:41:23.120Z,22.83
2023-11-19T21:44:25.249Z,29.37
2023-11-19T21:47:27.434Z,23.83
2023-11-19T21:50:29.595Z,28.77
2023-11-19T21:53:31.723Z,27.75
2023-11-19T21:56:33.793Z,32.85
2023-11-19T21:59:35.957Z,28.73
2023-11-19T22:02:38.189Z,26.98
2023-11-19T22:05:40.351Z,30.53
2023-11-19T22:08:44.166Z,26.27
2023-11-19T22:11:48.177Z,27.63
2023-11-19T22:14:50.238Z,29.53
2023-11-19T22:17:54.416Z,24.63
2023-11-19T22:20:56.666Z,27.23
2023-11-19T22:23:59.349Z,27.73
2023-11-19T22:27:01.411Z,34.70
2023-11-19T22:30:03.737Z,36.65
2023-11-19T22:33:08.479Z,45.08
2023-11-19T22:36:11.694Z,62.73
2023-11-19T22:39:13.789Z,44.05
2023-11-19T22:42:16.019Z,34.28
2023-11-19T22:45:18.147Z,35.87
2023-11-19T22:48:20.288Z,32.72
2023-11-19T22:51:22.387Z,25.90
2023-11-19T22:54:24.538Z,27.23
2023-11-19T22:57:26.686Z,25.70
2023-11-19T23:00:29.572Z,25.17
2023-11-19T23:03:33.369Z,16.42
2023-11-19T23:06:35.569Z,19.90
2023-11-19T23:09:39.854Z,22.02
2023-11-19T23:12:42.055Z,21.55
2023-11-19T23:15:44.564Z,21.50
2023-11-19T23:18:46.802Z,23.27
2023-11-19T23:21:49.251Z,20.48
2023-11-19T23:24:51.866Z,20.75
2023-11-19T23:27:53.954Z,21.50
2023-11-19T23:30:56.174Z,19.50
2023-11-19T23:33:58.330Z,21.80
2023-11-19T23:37:00.425Z,22.07
2023-11-19T23:40:02.800Z,19.98
2023-11-19T23:43:05.029Z,22.95
2023-11-19T23:46:09.934Z,25.33
2023-11-19T23:49:13.189Z,25.63
2023-11-19T23:52:15.278Z,24.70
2023-11-19T23:55:17.451Z,21.95
2023-11-19T23:58:19.552Z,22.25
